createdAt,value
2022-10-31T00:00:34.931Z,2.50
2022-10-31T00:01:34.353Z,2.70
2022-10-31T00:02:34.722Z,2.40
2022-10-31T00:03:38.316Z,2.80
2022-10-31T00:04:35.230Z,2.50
2022-10-31T00:05:38.046Z,2.20
2022-10-31T00:06:35.823Z,2.70
2022-10-31T00:07:36.121Z,2.50
2022-10-31T00:08:38.284Z,2.40
2022-10-31T00:09:37.987Z,2.40
2022-10-31T00:10:39.630Z,2.40
2022-10-31T00:11:38.876Z,2.60
2022-10-31T00:12:39.046Z,2.50
2022-10-31T00:13:39.724Z,2.20
2022-10-31T00:14:39.905Z,2.20
2022-10-31T00:15:39.908Z,2.50
2022-10-31T00:16:40.652Z,2.50
2022-10-31T00:17:40.797Z,2.30
2022-10-31T00:18:40.996Z,2.40
2022-10-31T00:19:41.178Z,2.40
2022-10-31T00:20:42.354Z,2.60
2022-10-31T00:21:42.078Z,2.50
2022-10-31T00:22:40.459Z,2.70
2022-10-31T00:23:42.659Z,2.60
2022-10-31T00:24:42.827Z,2.40
2022-10-31T00:25:44.001Z,2.60
2022-10-31T00:26:43.231Z,2.20
2022-10-31T00:27:41.992Z,2.50
2022-10-31T00:28:42.284Z,2.40
2022-10-31T00:29:42.587Z,2.50
2022-10-31T00:30:43.896Z,2.70
2022-10-31T00:31:43.145Z,2.70
2022-10-31T00:32:45.332Z,2.60
2022-10-31T00:33:43.778Z,2.50
2022-10-31T00:34:44.093Z,3.20
2022-10-31T00:35:45.346Z,2.60
2022-10-31T00:36:46.601Z,2.90
2022-10-31T00:37:44.988Z,2.70
2022-10-31T00:38:45.304Z,2.30
2022-10-31T00:39:47.663Z,2.70
2022-10-31T00:40:46.933Z,3.00
2022-10-31T00:41:46.180Z,2.90
2022-10-31T00:42:49.321Z,2.80
2022-10-31T00:43:46.842Z,3.20
2022-10-31T00:44:47.155Z,2.60
2022-10-31T00:45:48.937Z,2.90
2022-10-31T00:46:49.674Z,2.80
2022-10-31T00:47:48.987Z,2.80
2022-10-31T00:48:48.363Z,2.90
2022-10-31T00:49:48.665Z,3.00
2022-10-31T00:50:51.847Z,3.30
2022-10-31T00:51:51.075Z,2.90
2022-10-31T00:52:49.582Z,2.90
2022-10-31T00:53:49.889Z,3.10
2022-10-31T00:54:50.195Z,2.80
2022-10-31T00:55:51.478Z,2.70
2022-10-31T00:56:52.716Z,2.90
2022-10-31T00:57:51.097Z,3.60
2022-10-31T00:58:51.414Z,3.10
2022-10-31T00:59:51.733Z,3.20
2022-10-31T01:00:53.046Z,3.30
2022-10-31T01:01:54.295Z,3.60
2022-10-31T01:02:52.763Z,3.60
2022-10-31T01:03:52.903Z,3.30
2022-10-31T01:04:53.266Z,3.60
2022-10-31T01:05:54.500Z,3.20
2022-10-31T01:06:55.704Z,3.50
2022-10-31T01:07:54.091Z,3.50
2022-10-31T01:08:54.399Z,3.50
2022-10-31T01:09:54.705Z,3.60
2022-10-31T01:10:55.039Z,3.70
2022-10-31T01:11:57.217Z,3.80
2022-10-31T01:12:55.609Z,3.80
2022-10-31T01:13:55.895Z,4.10
2022-10-31T01:14:56.219Z,4.10
2022-10-31T01:15:57.571Z,4.20
2022-10-31T01:16:58.790Z,4.40
2022-10-31T01:17:59.110Z,4.20
2022-10-31T01:18:59.151Z,4.20
2022-10-31T01:19:59.338Z,4.30
2022-10-31T01:21:01.529Z,4.50
2022-10-31T01:22:00.211Z,3.90
2022-10-31T01:23:00.409Z,3.80
2022-10-31T01:24:00.588Z,4.00
2022-10-31T01:25:01.261Z,4.10
2022-10-31T01:26:02.905Z,4.10
2022-10-31T01:27:01.632Z,4.20
2022-10-31T01:28:00.684Z,4.10
2022-10-31T01:29:00.567Z,4.10
2022-10-31T01:30:00.894Z,4.00
2022-10-31T01:31:04.563Z,4.10
2022-10-31T01:32:01.482Z,4.30
2022-10-31T01:33:03.676Z,4.60
2022-10-31T01:34:02.041Z,5.00
2022-10-31T01:35:02.363Z,4.60
2022-10-31T01:36:04.702Z,4.70
2022-10-31T01:37:02.982Z,4.80
2022-10-31T01:38:03.276Z,4.70
2022-10-31T01:39:05.465Z,4.80
2022-10-31T01:40:03.874Z,5.30
2022-10-31T01:41:07.553Z,5.10
2022-10-31T01:42:04.463Z,5.50
2022-10-31T01:43:04.776Z,5.80
2022-10-31T01:44:05.079Z,6.00
2022-10-31T01:45:07.246Z,5.90
2022-10-31T01:46:08.381Z,5.80
2022-10-31T01:47:07.594Z,6.00
2022-10-31T01:48:07.753Z,5.70
2022-10-31T01:49:08.433Z,6.00
2022-10-31T01:50:08.608Z,6.50
2022-10-31T01:51:07.156Z,6.20
2022-10-31T01:52:09.356Z,6.80
2022-10-31T01:53:09.540Z,6.70
2022-10-31T01:54:09.739Z,6.70
2022-10-31T01:55:09.919Z,6.60
2022-10-31T01:56:10.604Z,7.10
2022-10-31T01:57:10.785Z,6.70
2022-10-31T01:58:11.051Z,7.40
2022-10-31T01:59:11.147Z,6.80
2022-10-31T02:00:11.337Z,7.70
2022-10-31T02:01:12.073Z,6.70
2022-10-31T02:02:12.324Z,7.30
2022-10-31T02:03:12.391Z,7.30
2022-10-31T02:04:12.566Z,7.70
2022-10-31T02:05:11.328Z,6.90
2022-10-31T02:06:11.635Z,7.00
2022-10-31T02:07:11.938Z,7.60
2022-10-31T02:08:14.141Z,7.00
2022-10-31T02:09:14.335Z,7.00
2022-10-31T02:10:12.824Z,7.40
2022-10-31T02:11:14.138Z,7.70
2022-10-31T02:12:13.393Z,7.10
2022-10-31T02:13:15.632Z,6.40
2022-10-31T02:14:13.997Z,6.50
2022-10-31T02:15:14.356Z,5.80
2022-10-31T02:16:16.489Z,6.00
2022-10-31T02:17:14.876Z,6.00
2022-10-31T02:18:18.510Z,5.70
2022-10-31T02:19:15.454Z,5.20
2022-10-31T02:20:17.660Z,5.60
2022-10-31T02:21:16.052Z,5.60
2022-10-31T02:22:18.219Z,5.60
2022-10-31T02:23:16.600Z,5.20
2022-10-31T02:24:18.789Z,5.50
2022-10-31T02:25:18.131Z,5.40
2022-10-31T02:26:19.337Z,5.40
2022-10-31T02:27:17.732Z,5.60
2022-10-31T02:29:20.233Z,6.00
2022-10-31T02:30:19.461Z,5.50
2022-10-31T02:31:20.804Z,5.40
2022-10-31T02:32:19.202Z,5.70
2022-10-31T02:33:19.522Z,6.30
2022-10-31T02:34:21.713Z,6.20
2022-10-31T02:35:21.027Z,5.90
2022-10-31T02:36:22.286Z,6.20
2022-10-31T02:37:20.662Z,6.00
2022-10-31T02:38:20.989Z,6.30
2022-10-31T02:39:21.297Z,5.30
2022-10-31T02:40:23.622Z,5.80
2022-10-31T02:41:22.768Z,5.50
2022-10-31T02:42:22.915Z,6.30
2022-10-31T02:43:23.376Z,6.00
2022-10-31T02:44:23.680Z,5.80
2022-10-31T02:45:26.402Z,5.80
2022-10-31T02:46:23.309Z,6.20
2022-10-31T02:47:23.617Z,6.50
2022-10-31T02:48:23.931Z,6.50
2022-10-31T02:49:26.116Z,6.40
2022-10-31T02:50:27.316Z,6.00
2022-10-31T02:51:24.837Z,5.90
2022-10-31T02:52:27.021Z,6.10
2022-10-31T02:53:25.383Z,6.30
2022-10-31T02:54:25.700Z,5.60
2022-10-31T02:55:29.349Z,6.20
2022-10-31T02:56:26.269Z,6.40
2022-10-31T02:57:28.438Z,5.80
2022-10-31T02:58:26.838Z,5.50
2022-10-31T02:59:27.135Z,6.50
2022-10-31T03:00:29.799Z,6.20
2022-10-31T03:01:27.843Z,5.70
2022-10-31T03:02:30.050Z,6.70
2022-10-31T03:03:28.242Z,6.00
2022-10-31T03:04:28.556Z,5.90
2022-10-31T03:05:29.676Z,6.80
2022-10-31T03:06:29.189Z,6.10
2022-10-31T03:07:31.377Z,6.00
2022-10-31T03:08:29.757Z,5.80
2022-10-31T03:09:30.064Z,6.70
2022-10-31T03:10:31.237Z,6.20
2022-10-31T03:11:30.613Z,5.70
2022-10-31T03:12:32.806Z,6.10
2022-10-31T03:13:31.200Z,6.30
2022-10-31T03:14:31.492Z,6.40
2022-10-31T03:15:32.800Z,6.90
2022-10-31T03:16:32.058Z,6.70
2022-10-31T03:17:34.247Z,5.90
2022-10-31T03:18:32.622Z,5.80
2022-10-31T03:19:32.909Z,5.90
2022-10-31T03:20:35.498Z,6.00
2022-10-31T03:21:36.298Z,5.80
2022-10-31T03:22:35.503Z,6.10
2022-10-31T03:23:35.637Z,6.00
2022-10-31T03:24:36.337Z,5.60
2022-10-31T03:25:36.624Z,6.30
2022-10-31T03:26:36.747Z,5.80
2022-10-31T03:27:36.935Z,6.00
2022-10-31T03:28:37.122Z,6.20
2022-10-31T03:29:37.777Z,6.00
2022-10-31T03:30:38.613Z,6.10
2022-10-31T03:31:38.125Z,5.60
2022-10-31T03:32:38.317Z,6.00
2022-10-31T03:33:38.990Z,6.00
2022-10-31T03:34:39.194Z,6.00
2022-10-31T03:35:40.410Z,5.30
2022-10-31T03:36:39.563Z,6.50
2022-10-31T03:37:40.227Z,6.30
2022-10-31T03:38:40.414Z,7.00
2022-10-31T03:39:40.574Z,5.90
2022-10-31T03:40:40.130Z,5.00
2022-10-31T03:41:41.473Z,4.50
2022-10-31T03:42:39.742Z,5.60
2022-10-31T03:43:40.033Z,5.50
2022-10-31T03:44:42.221Z,5.40
2022-10-31T03:45:41.443Z,4.90
2022-10-31T03:46:42.806Z,5.20
2022-10-31T03:47:41.192Z,6.00
2022-10-31T03:48:41.505Z,5.20
2022-10-31T03:49:41.815Z,4.90
2022-10-31T03:50:43.013Z,5.10
2022-10-31T03:51:45.858Z,4.10
2022-10-31T03:52:42.639Z,4.80
2022-10-31T03:53:44.823Z,4.00
2022-10-31T03:54:45.028Z,4.50
2022-10-31T03:55:43.584Z,3.90
2022-10-31T03:56:45.751Z,3.70
2022-10-31T03:57:45.931Z,3.30
2022-10-31T03:58:46.119Z,3.10
2022-10-31T03:59:46.308Z,3.00
2022-10-31T04:00:45.941Z,3.10
2022-10-31T04:01:47.423Z,2.70
2022-10-31T04:02:47.460Z,2.80
2022-10-31T04:03:47.484Z,2.80
2022-10-31T04:04:45.979Z,2.60
2022-10-31T04:05:49.639Z,2.60
2022-10-31T04:06:48.380Z,2.30
2022-10-31T04:07:46.887Z,2.20
2022-10-31T04:08:49.070Z,2.00
2022-10-31T04:09:49.250Z,2.00
2022-10-31T04:10:51.423Z,2.40
2022-10-31T04:11:49.650Z,2.30
2022-10-31T04:12:50.347Z,2.30
2022-10-31T04:13:50.518Z,2.40
2022-10-31T04:14:49.029Z,2.20
2022-10-31T04:15:50.335Z,2.30
2022-10-31T04:16:49.598Z,2.20
2022-10-31T04:17:51.762Z,2.30
2022-10-31T04:18:51.958Z,2.20
2022-10-31T04:19:50.474Z,2.40
2022-10-31T04:20:52.773Z,2.60
2022-10-31T04:21:51.028Z,2.40
2022-10-31T04:22:53.212Z,2.70
2022-10-31T04:23:51.597Z,2.10
2022-10-31T04:24:53.768Z,2.30
2022-10-31T04:25:54.896Z,2.50
2022-10-31T04:26:52.419Z,2.40
2022-10-31T04:27:52.726Z,2.80
2022-10-31T04:28:55.874Z,2.80
2022-10-31T04:29:53.260Z,3.30
2022-10-31T04:30:55.521Z,2.80
2022-10-31T04:31:53.916Z,3.30
2022-10-31T04:32:56.090Z,3.30
2022-10-31T04:33:54.455Z,3.30
2022-10-31T04:34:55.682Z,3.10
2022-10-31T04:35:56.562Z,3.40
2022-10-31T04:36:55.302Z,3.00
2022-10-31T04:37:57.482Z,3.40
2022-10-31T04:38:55.868Z,3.80
2022-10-31T04:39:56.991Z,3.60
2022-10-31T04:40:59.460Z,3.90
2022-10-31T04:41:56.736Z,3.60
2022-10-31T04:42:57.210Z,3.70
2022-10-31T04:43:59.225Z,3.40
2022-10-31T04:44:57.595Z,3.10
2022-10-31T04:45:58.717Z,2.90
2022-10-31T04:46:58.211Z,3.40
2022-10-31T04:47:58.888Z,3.40
2022-10-31T04:49:00.709Z,3.60
2022-10-31T04:49:59.074Z,3.20
2022-10-31T04:51:01.886Z,3.50
2022-10-31T04:51:59.650Z,3.50
2022-10-31T04:53:01.836Z,3.00
2022-10-31T04:54:02.025Z,3.20
2022-10-31T04:55:00.531Z,3.60
2022-10-31T04:56:03.660Z,2.90
2022-10-31T04:57:01.189Z,4.20
2022-10-31T04:58:03.866Z,3.40
2022-10-31T04:59:03.554Z,3.60
2022-10-31T05:00:03.739Z,3.30
2022-10-31T05:01:06.390Z,3.00
2022-10-31T05:02:02.822Z,3.30
2022-10-31T05:03:03.291Z,2.90
2022-10-31T05:04:04.307Z,2.90
2022-10-31T05:05:03.568Z,2.80
2022-10-31T05:06:05.794Z,2.70
2022-10-31T05:07:04.182Z,2.50
2022-10-31T05:08:04.479Z,2.80
2022-10-31T05:09:06.663Z,2.70
2022-10-31T05:10:06.834Z,2.40
2022-10-31T05:11:07.396Z,2.60
2022-10-31T05:12:07.247Z,3.00
2022-10-31T05:13:07.470Z,2.60
2022-10-31T05:14:08.115Z,2.90
2022-10-31T05:15:08.304Z,3.40
2022-10-31T05:16:08.489Z,2.40
2022-10-31T05:17:07.108Z,3.20
2022-10-31T05:18:09.283Z,2.70
2022-10-31T05:19:10.653Z,2.50
2022-10-31T05:20:09.831Z,2.30
2022-10-31T05:21:10.006Z,2.20
2022-10-31T05:22:08.505Z,2.40
2022-10-31T05:23:10.702Z,2.30
2022-10-31T05:24:09.086Z,2.30
2022-10-31T05:25:09.398Z,2.20
2022-10-31T05:26:09.701Z,3.40
2022-10-31T05:27:11.904Z,2.40
2022-10-31T05:28:12.088Z,2.30
2022-10-31T05:29:12.993Z,2.90
2022-10-31T05:30:12.726Z,2.50
2022-10-31T05:31:12.921Z,2.30
2022-10-31T05:32:13.104Z,2.80
2022-10-31T05:33:13.777Z,3.10
2022-10-31T05:34:13.961Z,3.70
2022-10-31T05:35:14.124Z,3.50
2022-10-31T05:36:14.348Z,4.30
2022-10-31T05:37:15.025Z,5.00
2022-10-31T05:38:15.163Z,5.90
2022-10-31T05:39:15.354Z,7.90
2022-10-31T05:40:15.559Z,11.90
2022-10-31T05:41:14.226Z,13.30
2022-10-31T05:42:17.860Z,13.00
2022-10-31T05:43:16.596Z,15.10
2022-10-31T05:44:16.765Z,16.10
2022-10-31T05:45:16.981Z,17.10
2022-10-31T05:46:19.152Z,14.90
2022-10-31T05:47:16.092Z,14.10
2022-10-31T05:48:18.269Z,13.10
2022-10-31T05:49:18.467Z,14.10
2022-10-31T05:50:19.590Z,12.70
2022-10-31T05:51:20.338Z,13.70
2022-10-31T05:52:17.405Z,15.80
2022-10-31T05:53:17.754Z,10.30
2022-10-31T05:54:17.977Z,14.70
2022-10-31T05:55:19.229Z,12.30
2022-10-31T05:56:20.562Z,11.20
2022-10-31T05:57:20.757Z,12.40
2022-10-31T05:58:20.947Z,11.40
2022-10-31T05:59:21.137Z,7.90
2022-10-31T06:00:22.298Z,8.70
2022-10-31T06:01:22.067Z,8.50
2022-10-31T06:02:22.222Z,9.60
2022-10-31T06:03:20.564Z,8.20
2022-10-31T06:04:20.968Z,8.40
2022-10-31T06:05:23.136Z,7.70
2022-10-31T06:06:23.298Z,10.10
2022-10-31T06:07:21.724Z,7.10
2022-10-31T06:08:25.330Z,5.40
2022-10-31T06:09:22.270Z,4.40
2022-10-31T06:10:26.011Z,8.40
2022-10-31T06:11:24.699Z,8.00
2022-10-31T06:12:23.219Z,7.80
2022-10-31T06:13:23.577Z,11.40
2022-10-31T06:14:23.990Z,6.00
2022-10-31T06:15:25.149Z,7.70
2022-10-31T06:16:26.298Z,7.00
2022-10-31T06:17:24.610Z,5.90
2022-10-31T06:18:24.843Z,8.10
2022-10-31T06:19:25.070Z,6.80
2022-10-31T06:20:26.383Z,5.40
2022-10-31T06:21:27.621Z,7.00
2022-10-31T06:22:25.910Z,6.10
2022-10-31T06:23:26.130Z,6.10
2022-10-31T06:24:26.483Z,6.80
2022-10-31T06:25:27.738Z,6.70
2022-10-31T06:26:28.911Z,6.30
2022-10-31T06:27:27.371Z,5.30
2022-10-31T06:28:27.547Z,6.70
2022-10-31T06:29:27.784Z,6.70
2022-10-31T06:30:29.109Z,8.20
2022-10-31T06:31:30.343Z,6.40
2022-10-31T06:32:28.644Z,7.80
2022-10-31T06:33:30.830Z,6.70
2022-10-31T06:34:29.147Z,6.80
2022-10-31T06:35:30.237Z,6.70
2022-10-31T06:36:31.594Z,7.50
2022-10-31T06:37:29.877Z,7.20
2022-10-31T06:38:30.214Z,8.60
2022-10-31T06:39:30.432Z,8.00
2022-10-31T06:40:31.563Z,8.20
2022-10-31T06:41:32.910Z,10.90
2022-10-31T06:42:31.234Z,7.70
2022-10-31T06:43:31.474Z,8.50
2022-10-31T06:44:31.829Z,9.70
2022-10-31T06:45:35.409Z,8.90
2022-10-31T06:46:34.279Z,7.40
2022-10-31T06:47:35.262Z,9.10
2022-10-31T06:48:33.723Z,8.70
2022-10-31T06:49:33.028Z,7.60
2022-10-31T06:50:34.251Z,7.60
2022-10-31T06:51:35.484Z,6.80
2022-10-31T06:52:33.796Z,7.20
2022-10-31T06:53:34.037Z,7.80
2022-10-31T06:54:36.236Z,7.20
2022-10-31T06:55:35.497Z,5.80
2022-10-31T06:56:36.042Z,6.10
2022-10-31T06:57:36.776Z,5.70
2022-10-31T06:58:35.331Z,5.10
2022-10-31T06:59:35.554Z,4.90
2022-10-31T07:00:35.972Z,5.20
2022-10-31T07:01:37.410Z,4.10
2022-10-31T07:02:38.412Z,5.50
2022-10-31T07:03:38.600Z,4.80
2022-10-31T07:04:38.758Z,4.30
2022-10-31T07:05:38.368Z,3.50
2022-10-31T07:06:37.664Z,3.80
2022-10-31T07:07:37.894Z,4.10
2022-10-31T07:08:40.111Z,4.00
2022-10-31T07:09:38.543Z,3.90
2022-10-31T07:10:40.505Z,3.20
2022-10-31T07:11:41.074Z,3.70
2022-10-31T07:12:39.513Z,4.70
2022-10-31T07:13:39.937Z,3.80
2022-10-31T07:14:41.904Z,4.20
2022-10-31T07:15:42.225Z,3.90
2022-10-31T07:16:40.625Z,3.80
2022-10-31T07:17:42.807Z,4.60
2022-10-31T07:18:42.998Z,4.80
2022-10-31T07:19:43.214Z,4.00
2022-10-31T07:20:41.833Z,3.90
2022-10-31T07:21:43.953Z,3.90
2022-10-31T07:22:48.174Z,3.80
2022-10-31T07:23:43.667Z,3.50
2022-10-31T07:24:44.839Z,3.60
2022-10-31T07:25:46.004Z,3.30
2022-10-31T07:26:45.234Z,4.10
2022-10-31T07:27:45.416Z,3.80
2022-10-31T07:28:45.606Z,3.20
2022-10-31T07:29:45.404Z,3.40
2022-10-31T07:30:48.084Z,3.20
2022-10-31T07:31:46.780Z,3.00
2022-10-31T07:32:46.964Z,3.20
2022-10-31T07:33:46.620Z,3.40
2022-10-31T07:34:47.813Z,2.60
2022-10-31T07:35:48.953Z,2.90
2022-10-31T07:36:49.681Z,2.90
2022-10-31T07:37:48.398Z,2.90
2022-10-31T07:38:48.578Z,2.80
2022-10-31T07:39:49.252Z,2.60
2022-10-31T07:40:50.414Z,2.80
2022-10-31T07:41:49.650Z,2.70
2022-10-31T07:42:49.854Z,2.90
2022-10-31T07:43:50.635Z,2.70
2022-10-31T07:44:52.712Z,2.80
2022-10-31T07:45:51.864Z,2.80
2022-10-31T07:46:51.101Z,2.60
2022-10-31T07:47:51.770Z,2.70
2022-10-31T07:48:51.964Z,3.10
2022-10-31T07:49:52.147Z,2.70
2022-10-31T07:50:53.316Z,3.10
2022-10-31T07:51:52.538Z,3.10
2022-10-31T07:52:53.225Z,2.60
2022-10-31T07:53:51.656Z,2.60
2022-10-31T07:54:52.001Z,2.50
2022-10-31T07:55:53.288Z,2.50
2022-10-31T07:56:54.497Z,2.30
2022-10-31T07:57:52.918Z,2.20
2022-10-31T07:58:53.276Z,2.60
2022-10-31T07:59:53.499Z,2.30
2022-10-31T08:00:57.253Z,2.20
2022-10-31T08:01:55.938Z,2.20
2022-10-31T08:02:54.353Z,2.30
2022-10-31T08:03:54.581Z,2.00
2022-10-31T08:04:57.220Z,2.10
2022-10-31T08:05:57.033Z,1.90
2022-10-31T08:06:57.267Z,1.60
2022-10-31T08:07:57.735Z,1.60
2022-10-31T08:08:55.910Z,1.80
2022-10-31T08:09:58.090Z,1.20
2022-10-31T08:10:59.741Z,1.00
2022-10-31T08:11:58.480Z,1.00
2022-10-31T08:12:57.020Z,1.10
2022-10-31T08:14:00.622Z,1.20
2022-10-31T08:14:57.697Z,1.30
2022-10-31T08:16:00.864Z,1.30
2022-10-31T08:17:00.100Z,1.00
2022-10-31T08:18:00.332Z,1.30
2022-10-31T08:18:58.883Z,1.20
2022-10-31T08:19:59.222Z,0.90
2022-10-31T08:21:02.422Z,1.10
2022-10-31T08:22:01.657Z,1.00
2022-10-31T08:23:00.096Z,0.90
2022-10-31T08:24:03.247Z,1.00
2022-10-31T08:25:00.707Z,1.00
2022-10-31T08:26:03.857Z,1.00
2022-10-31T08:27:01.169Z,1.00
2022-10-31T08:28:02.564Z,1.20
2022-10-31T08:29:02.696Z,1.00
2022-10-31T08:30:02.819Z,1.00
2022-10-31T08:31:04.547Z,1.00
2022-10-31T08:32:02.471Z,1.00
2022-10-31T08:33:02.818Z,0.90
2022-10-31T08:34:03.150Z,0.90
2022-10-31T08:35:05.439Z,0.80
2022-10-31T08:36:05.603Z,0.80
2022-10-31T08:37:04.014Z,0.80
2022-10-31T08:38:04.651Z,0.80
2022-10-31T08:39:04.649Z,0.90
2022-10-31T08:40:06.813Z,0.80
2022-10-31T08:41:06.583Z,0.90
2022-10-31T08:42:06.275Z,0.80
2022-10-31T08:43:06.659Z,0.80
2022-10-31T08:44:07.205Z,0.90
2022-10-31T08:45:08.234Z,0.80
2022-10-31T08:46:08.496Z,0.90
2022-10-31T08:47:06.819Z,0.80
2022-10-31T08:48:07.055Z,0.80
2022-10-31T08:49:07.396Z,0.80
2022-10-31T08:50:11.071Z,0.80
2022-10-31T08:51:09.832Z,0.80
2022-10-31T08:52:13.512Z,0.80
2022-10-31T08:53:12.336Z,0.70
2022-10-31T08:54:08.923Z,0.80
2022-10-31T08:55:12.312Z,0.90
2022-10-31T08:56:11.010Z,0.80
2022-10-31T08:57:09.590Z,0.80
2022-10-31T08:58:09.880Z,0.80
2022-10-31T08:59:12.098Z,0.90
2022-10-31T09:00:11.379Z,0.70
2022-10-31T09:01:12.769Z,0.60
2022-10-31T09:02:11.043Z,0.70
2022-10-31T09:03:11.261Z,0.90
2022-10-31T09:04:11.513Z,0.50
2022-10-31T09:05:12.652Z,0.70
2022-10-31T09:06:15.549Z,0.60
2022-10-31T09:07:20.496Z,0.70
2022-10-31T09:08:16.738Z,0.70
2022-10-31T09:09:12.840Z,0.50
2022-10-31T09:10:13.092Z,0.60
2022-10-31T09:11:15.248Z,0.70
2022-10-31T09:12:16.919Z,0.60
2022-10-31T09:13:13.892Z,0.60
2022-10-31T09:14:14.115Z,0.70
2022-10-31T09:15:16.312Z,0.70
2022-10-31T09:16:16.495Z,0.70
2022-10-31T09:17:16.733Z,0.80
2022-10-31T09:18:16.950Z,0.50
2022-10-31T09:19:17.073Z,0.90
2022-10-31T09:20:17.743Z,0.60
2022-10-31T09:21:19.432Z,0.40
2022-10-31T09:22:17.287Z,0.60
2022-10-31T09:23:18.506Z,0.80
2022-10-31T09:24:18.704Z,0.60
2022-10-31T09:25:18.871Z,0.60
2022-10-31T09:26:19.063Z,0.50
2022-10-31T09:27:20.230Z,0.60
2022-10-31T09:28:20.018Z,0.60
2022-10-31T09:29:20.154Z,0.70
2022-10-31T09:30:20.635Z,0.50
2022-10-31T09:31:22.029Z,0.60
2022-10-31T09:32:21.696Z,0.70
2022-10-31T09:33:21.410Z,1.00
2022-10-31T09:34:21.581Z,0.30
2022-10-31T09:35:24.823Z,0.50
2022-10-31T09:36:23.415Z,0.70
2022-10-31T09:37:21.670Z,0.60
2022-10-31T09:38:22.373Z,0.80
2022-10-31T09:39:21.202Z,1.10
2022-10-31T09:40:21.464Z,0.70
2022-10-31T09:41:24.614Z,0.70
2022-10-31T09:42:25.290Z,0.60
2022-10-31T09:43:24.011Z,0.50
2022-10-31T09:44:24.198Z,0.70
2022-10-31T09:45:24.899Z,0.60
2022-10-31T09:46:25.098Z,0.70
2022-10-31T09:47:25.377Z,0.60
2022-10-31T09:48:26.877Z,0.50
2022-10-31T09:49:25.663Z,0.50
2022-10-31T09:50:26.294Z,0.50
2022-10-31T09:51:28.785Z,0.60
2022-10-31T09:52:27.640Z,0.60
2022-10-31T09:53:26.855Z,0.50
2022-10-31T09:54:27.531Z,0.60
2022-10-31T09:55:27.729Z,0.60
2022-10-31T09:56:27.916Z,0.50
2022-10-31T09:57:29.060Z,0.70
2022-10-31T09:58:28.337Z,0.60
2022-10-31T09:59:28.976Z,0.80
2022-10-31T10:00:29.231Z,0.70
2022-10-31T10:01:29.477Z,0.50
2022-10-31T10:02:30.480Z,0.60
2022-10-31T10:03:29.702Z,0.50
2022-10-31T10:04:30.390Z,0.50
2022-10-31T10:05:28.837Z,0.60
2022-10-31T10:06:29.071Z,0.50
2022-10-31T10:07:31.253Z,0.70
2022-10-31T10:08:31.437Z,0.50
2022-10-31T10:09:29.880Z,0.50
2022-10-31T10:10:32.033Z,0.60
2022-10-31T10:11:30.478Z,0.60
2022-10-31T10:12:30.820Z,0.60
2022-10-31T10:13:32.935Z,0.60
2022-10-31T10:14:31.360Z,0.60
2022-10-31T10:15:33.556Z,0.50
2022-10-31T10:16:31.880Z,0.50
2022-10-31T10:17:34.026Z,0.50
2022-10-31T10:18:34.204Z,0.50
2022-10-31T10:19:32.647Z,0.50
2022-10-31T10:20:34.833Z,0.60
2022-10-31T10:21:34.150Z,0.80
2022-10-31T10:22:35.337Z,0.60
2022-10-31T10:23:33.776Z,0.60
2022-10-31T10:24:34.028Z,0.50
2022-10-31T10:25:34.268Z,0.70
2022-10-31T10:26:34.555Z,0.50
2022-10-31T10:27:36.702Z,0.60
2022-10-31T10:28:35.025Z,0.60
2022-10-31T10:29:35.276Z,0.60
2022-10-31T10:30:35.525Z,0.50
2022-10-31T10:31:38.709Z,0.60
2022-10-31T10:32:36.040Z,0.70
2022-10-31T10:33:39.681Z,0.60
2022-10-31T10:34:37.509Z,0.60
2022-10-31T10:35:36.822Z,0.60
2022-10-31T10:36:37.058Z,0.60
2022-10-31T10:37:37.311Z,0.50
2022-10-31T10:38:39.555Z,0.50
2022-10-31T10:39:37.878Z,0.50
2022-10-31T10:40:38.111Z,0.70
2022-10-31T10:41:38.359Z,0.50
2022-10-31T10:42:40.609Z,0.50
2022-10-31T10:43:39.004Z,0.60
2022-10-31T10:44:39.232Z,0.60
2022-10-31T10:45:40.287Z,0.50
2022-10-31T10:46:43.103Z,0.50
2022-10-31T10:47:41.833Z,0.70
2022-10-31T10:48:40.403Z,0.50
2022-10-31T10:49:40.653Z,0.50
2022-10-31T10:50:40.902Z,0.60
2022-10-31T10:51:58.310Z,0.60
2022-10-31T10:52:47.737Z,0.50
2022-10-31T10:53:42.779Z,0.60
2022-10-31T10:54:42.153Z,0.50
2022-10-31T10:55:42.425Z,0.60
2022-10-31T10:56:46.056Z,0.50
2022-10-31T10:57:44.771Z,0.50
2022-10-31T10:58:45.945Z,0.60
2022-10-31T10:59:43.629Z,0.50
2022-10-31T11:00:44.060Z,0.50
2022-10-31T11:01:47.156Z,0.40
2022-10-31T11:02:46.531Z,0.60
2022-10-31T11:03:44.936Z,0.60
2022-10-31T11:04:45.183Z,0.50
2022-10-31T11:05:45.435Z,0.50
2022-10-31T11:06:45.710Z,0.70
2022-10-31T11:07:47.868Z,0.50
2022-10-31T11:08:46.361Z,0.70
2022-10-31T11:09:46.561Z,0.50
2022-10-31T11:10:46.806Z,0.60
2022-10-31T11:11:48.034Z,0.60
2022-10-31T11:12:49.267Z,0.50
2022-10-31T11:13:47.581Z,0.60
2022-10-31T11:14:47.828Z,0.60
2022-10-31T11:15:48.076Z,0.50
2022-10-31T11:16:51.252Z,0.60
2022-10-31T11:17:50.488Z,0.50
2022-10-31T11:18:48.925Z,0.50
2022-10-31T11:19:51.105Z,0.50
2022-10-31T11:20:49.411Z,0.80
2022-10-31T11:21:54.167Z,0.60
2022-10-31T11:22:51.895Z,0.60
2022-10-31T11:23:52.073Z,0.70
2022-10-31T11:24:52.252Z,0.60
2022-10-31T11:25:52.437Z,0.60
2022-10-31T11:26:54.564Z,0.50
2022-10-31T11:27:53.295Z,0.50
2022-10-31T11:28:53.484Z,0.50
2022-10-31T11:29:58.198Z,0.90
2022-10-31T11:30:55.304Z,0.60
2022-10-31T11:31:55.548Z,0.50
2022-10-31T11:32:52.872Z,0.70
2022-10-31T11:33:55.061Z,0.50
2022-10-31T11:34:55.264Z,0.50
2022-10-31T11:35:56.947Z,0.50
2022-10-31T11:36:54.851Z,0.60
2022-10-31T11:37:54.173Z,0.60
2022-10-31T11:38:56.355Z,0.50
2022-10-31T11:39:56.534Z,0.40
2022-10-31T11:40:56.735Z,0.70
2022-10-31T11:41:57.929Z,0.60
2022-10-31T11:42:55.733Z,0.50
2022-10-31T11:43:57.919Z,0.50
2022-10-31T11:44:58.102Z,0.80
2022-10-31T11:45:56.555Z,0.60
2022-10-31T11:47:00.264Z,0.50
2022-10-31T11:47:59.957Z,0.40
2022-10-31T11:48:59.274Z,0.50
2022-10-31T11:49:59.465Z,0.40
2022-10-31T11:50:59.662Z,0.50
2022-10-31T11:51:59.875Z,0.50
2022-10-31T11:53:00.545Z,0.50
2022-10-31T11:54:02.954Z,0.60
2022-10-31T11:55:00.935Z,0.50
2022-10-31T11:56:01.110Z,0.40
2022-10-31T11:57:01.639Z,0.50
2022-10-31T11:58:00.340Z,0.40
2022-10-31T11:59:02.158Z,0.40
2022-10-31T12:00:02.346Z,0.50
2022-10-31T12:01:02.526Z,0.50
2022-10-31T12:02:02.850Z,0.40
2022-10-31T12:03:01.714Z,0.40
2022-10-31T12:04:01.580Z,0.50
2022-10-31T12:05:03.763Z,0.70
2022-10-31T12:06:03.942Z,0.40
2022-10-31T12:07:05.094Z,0.40
2022-10-31T12:08:04.497Z,0.60
2022-10-31T12:09:03.012Z,0.50
2022-10-31T12:10:03.260Z,0.50
2022-10-31T12:11:05.440Z,0.50
2022-10-31T12:12:06.142Z,0.50
2022-10-31T12:13:04.448Z,0.50
2022-10-31T12:14:04.520Z,0.70
2022-10-31T12:15:04.722Z,0.60
2022-10-31T12:16:04.961Z,0.50
2022-10-31T12:17:08.674Z,0.60
2022-10-31T12:18:05.490Z,0.50
2022-10-31T12:19:05.735Z,0.60
2022-10-31T12:20:05.969Z,0.50
2022-10-31T12:21:06.217Z,0.50
2022-10-31T12:22:07.424Z,0.50
2022-10-31T12:23:08.302Z,0.60
2022-10-31T12:24:08.963Z,0.40
2022-10-31T12:25:08.160Z,0.50
2022-10-31T12:26:09.518Z,0.50
2022-10-31T12:27:10.679Z,0.50
2022-10-31T12:28:09.892Z,0.60
2022-10-31T12:29:08.465Z,0.60
2022-10-31T12:30:10.627Z,0.40
2022-10-31T12:31:08.948Z,0.60
2022-10-31T12:32:10.121Z,0.60
2022-10-31T12:33:11.516Z,0.50
2022-10-31T12:34:11.710Z,0.50
2022-10-31T12:35:10.147Z,0.50
2022-10-31T12:36:14.263Z,0.40
2022-10-31T12:37:14.554Z,0.50
2022-10-31T12:38:12.779Z,0.60
2022-10-31T12:39:11.223Z,0.60
2022-10-31T12:40:11.459Z,0.60
2022-10-31T12:41:11.734Z,0.70
2022-10-31T12:42:15.380Z,0.60
2022-10-31T12:43:14.118Z,0.70
2022-10-31T12:44:14.301Z,0.60
2022-10-31T12:45:12.862Z,0.60
2022-10-31T12:46:15.096Z,0.60
2022-10-31T12:47:14.384Z,0.60
2022-10-31T12:48:15.615Z,0.40
2022-10-31T12:49:13.930Z,0.60
2022-10-31T12:50:14.249Z,0.60
2022-10-31T12:51:16.354Z,0.70
2022-10-31T12:52:16.284Z,0.50
2022-10-31T12:53:17.021Z,0.40
2022-10-31T12:54:16.129Z,0.50
2022-10-31T12:55:15.699Z,0.60
2022-10-31T12:56:17.863Z,0.40
2022-10-31T12:57:17.162Z,0.60
2022-10-31T12:58:16.493Z,0.60
2022-10-31T12:59:16.735Z,0.60
2022-10-31T13:00:16.967Z,0.50
2022-10-31T13:01:17.292Z,0.50
2022-10-31T13:02:20.402Z,0.50
2022-10-31T13:03:19.585Z,0.60
2022-10-31T13:04:19.787Z,0.40
2022-10-31T13:05:18.472Z,0.60
2022-10-31T13:06:18.728Z,0.50
2022-10-31T13:07:21.922Z,0.70
2022-10-31T13:08:19.241Z,0.60
2022-10-31T13:09:21.424Z,0.40
2022-10-31T13:10:21.607Z,0.60
2022-10-31T13:11:21.049Z,0.50
2022-10-31T13:12:22.297Z,0.60
2022-10-31T13:13:22.447Z,0.60
2022-10-31T13:14:20.890Z,0.50
2022-10-31T13:15:23.107Z,0.50
2022-10-31T13:16:23.257Z,0.50
2022-10-31T13:17:24.423Z,0.40
2022-10-31T13:18:21.987Z,0.40
2022-10-31T13:19:22.219Z,0.50
2022-10-31T13:20:22.455Z,0.60
2022-10-31T13:21:24.642Z,0.50
2022-10-31T13:22:23.940Z,0.40